PAWGPAPG

Guest
Details From PAWG - Wrangell
To PAPG - Petersburg James A Johnson
Flight Number -
Tags Routegen Generated
Created
Modified
Stats Distance 30 nm / 55 km
Max Altitude 100 ft / 30 m
Waypoints 5
Social Downloads 4
Likes 0
Share VATSIM

Download

Looking for another format? Having issues loading an existing format? Contact us
Advertisement - Login to hide

Notes

Departing runway 30 PAWG. Arriving runway 7 PAPG.

Route

PAWG +56.53_-132.49 +56.68_-132.65 +56.83_-132.81 PAPG

ID Type Via Altitude Latitude Longitude Leg Dist Tot Dist Heading (true) Name
O PAWG APT - 0 ft / 0 m 56.48860˚ -132.38250˚ - 0 nm - -
+56.53_-132.49 LATLON - 100 ft / 30 m 56.52631˚ -132.49443˚ 4 nm 4 nm 301° / 301° -
+56.68_-132.65 LATLON - 100 ft / 30 m 56.67724˚ -132.65037˚ 10 nm 14 nm 330° / 330° -
+56.83_-132.81 LATLON - 100 ft / 30 m 56.82818˚ -132.80631˚ 10 nm 25 nm 331° / 330° -
O PAPG APT - 0 ft / 0 m 56.80436˚ -132.93116˚ 4 nm 29 nm 251° / 251° -

Altitude Profile

Advertisement - Login to hide

PAWG

Details ICAO PAWG (WRG)
Name WRANGELL
Region USA (Alaska)
Timezone America/Juneau (UTC-9.0)
Stats Elevation 44 ft / 13 m (AMSL)
Location 56.484324° -132.369832°
Runways 1
Magnetic Variation 18.810° E

METAR

PAWG 130455Z 07008KT 10SM BKN040 OVC060 07/06 A3033

Decode

TAF

TAF PAWG 122331Z 1300/1324 11004KT P6SM -RA SCT025 OVC035 FM130300 11013KT 6SM -RA BR OVC025 FM131500 11006KT P6SM -RA OVC025 AMD LTD TO CLD VIS AND WIND 1306/1315

Decode

Departure Runways

ID Width Length Bearing (true) Bearing (mag) Surface Threshold Offset Overrun Length
10 150 ft / 46 m 5,983 ft / 1,824 m 121.43° 102.62° Asphalt 0 ft / 0 m 0 ft / 0 m
28 150 ft / 46 m 5,983 ft / 1,824 m 301.45° 282.64° Asphalt 0 ft / 0 m 0 ft / 0 m

PAPG

Details ICAO PAPG (PSG)
Name PETERSBURG JAMES A JOHNSON
Region USA (Alaska)
Timezone America/Juneau (UTC-9.0)
Stats Elevation 105 ft / 32 m (AMSL)
Location 56.801651° -132.945289°
Runways 1
Magnetic Variation 18.867° E

METAR

PAPG 130456Z COR 00000KT 10SM -RA FEW019 OVC035 06/06 A3029 RMK AO2 RAB06 SLPNO P0001 T00610056 $

Decode

TAF

TAF AMD PAPG 130408Z 1304/1324 VRB04KT P6SM BCFG SCT015 OVC035 FM130600 VRB03KT 4SM -RA BR SCT015 OVC025 FM131400 VRB04KT 6SM -RA BR SCT020 OVC040 AMD LTD TO CLD VIS AND WIND 1307/1315

Decode

Destination Runways

ID Width Length Bearing (true) Bearing (mag) Surface Threshold Offset Overrun Length
04 150 ft / 46 m 5,982 ft / 1,823 m 70.70° 51.83° Asphalt 0 ft / 0 m 0 ft / 0 m
22 150 ft / 46 m 5,982 ft / 1,823 m 250.73° 231.86° Asphalt 0 ft / 0 m 0 ft / 0 m

Approach Navaids

Runway Type Ident Frequency Range Bearing (true) Bearing (mag) Slope Elevation
22 Localiser IPSG 110.50 MHz 18 nm / 33 km 185.00° 166.13° - 151 ft / 46 m (AMSL)
22 DME IPSG 110.50 MHz 18 nm / 33 km - - - 164 ft / 50 m (AMSL)

Popular Alternatives